createdAt,value
2022-11-26T00:01:44.415Z,4.55
2022-11-26T00:04:15.528Z,5.90
2022-11-26T00:06:46.344Z,8.30
2022-11-26T00:09:26.928Z,4.72
2022-11-26T00:11:56.300Z,2.75
2022-11-26T00:14:25.465Z,7.28
2022-11-26T00:17:04.907Z,4.75
2022-11-26T00:19:41.608Z,3.75
2022-11-26T00:22:28.640Z,3.53
2022-11-26T00:24:58.536Z,3.55
2022-11-26T00:27:41.048Z,5.43
2022-11-26T00:30:17.436Z,6.82
2022-11-26T00:32:47.032Z,8.57
2022-11-26T00:35:29.223Z,3.55
2022-11-26T00:38:00.440Z,4.20
2022-11-26T00:40:37.845Z,4.35
2022-11-26T00:43:11.460Z,2.67
2022-11-26T00:45:40.989Z,4.65
2022-11-26T00:48:10.156Z,6.30
2022-11-26T00:50:44.233Z,4.57
2022-11-26T00:53:15.941Z,5.63
2022-11-26T00:55:48.735Z,2.85
2022-11-26T00:58:24.775Z,6.57
2022-11-26T01:00:54.950Z,4.22
2022-11-26T01:03:24.568Z,3.13
2022-11-26T01:06:04.162Z,2.42
2022-11-26T01:08:36.595Z,4.75
2022-11-26T01:13:52.711Z,4.55
2022-11-26T01:16:24.650Z,2.85
2022-11-26T01:18:56.776Z,2.38
2022-11-26T01:23:59.207Z,2.95
2022-11-26T01:26:34.250Z,2.63
2022-11-26T01:29:03.499Z,2.40
2022-11-26T01:31:32.838Z,3.58
2022-11-26T01:34:03.647Z,3.85
2022-11-26T01:36:36.832Z,5.90
2022-11-26T01:39:08.355Z,3.45
2022-11-26T01:41:46.593Z,3.38
2022-11-26T01:44:25.771Z,5.30
2022-11-26T01:46:56.350Z,3.65
2022-11-26T01:49:28.138Z,4.05
2022-11-26T01:54:39.728Z,3.42
2022-11-26T01:57:17.940Z,4.88
2022-11-26T01:59:51.585Z,3.30
2022-11-26T02:02:23.181Z,4.80
2022-11-26T02:05:03.672Z,2.53
2022-11-26T02:07:35.661Z,4.22
2022-11-26T02:12:34.776Z,3.78
2022-11-26T02:15:04.558Z,5.07
2022-11-26T02:17:40.776Z,5.60
2022-11-26T02:20:38.078Z,5.03
2022-11-26T02:23:39.723Z,5.25
2022-11-26T02:29:08.540Z,4.10
2022-11-26T02:31:43.875Z,9.15
2022-11-26T02:34:25.031Z,7.57
2022-11-26T02:36:59.101Z,6.60
2022-11-26T02:39:39.287Z,6.63
2022-11-26T02:42:25.418Z,6.03
2022-11-26T02:44:56.999Z,3.72
2022-11-26T02:47:35.415Z,6.93
2022-11-26T02:50:08.970Z,6.72
2022-11-26T02:52:40.691Z,6.15
2022-11-26T02:55:12.746Z,5.70
2022-11-26T02:57:47.042Z,6.22
2022-11-26T03:00:20.242Z,6.05
2022-11-26T03:02:56.673Z,5.60
2022-11-26T03:05:38.830Z,3.47
2022-11-26T03:08:09.862Z,5.38
2022-11-26T03:10:39.186Z,4.97
2022-11-26T03:13:08.364Z,4.93
2022-11-26T03:15:37.715Z,4.60
2022-11-26T03:18:08.853Z,4.85
2022-11-26T03:20:38.254Z,3.90
2022-11-26T03:23:07.605Z,3.53
2022-11-26T03:25:38.455Z,5.87
2022-11-26T03:28:07.953Z,4.03
2022-11-26T03:30:37.502Z,5.63
2022-11-26T03:33:08.734Z,5.18
2022-11-26T03:35:37.948Z,4.57
2022-11-26T03:38:07.118Z,3.63
2022-11-26T03:40:36.596Z,3.13
2022-11-26T03:43:05.880Z,3.03
2022-11-26T03:45:35.262Z,5.15
2022-11-26T03:48:09.487Z,5.05
2022-11-26T03:50:40.714Z,3.45
2022-11-26T03:55:44.986Z,4.38
2022-11-26T03:58:14.254Z,2.97
2022-11-26T04:00:43.845Z,4.30
2022-11-26T04:03:12.899Z,5.20
2022-11-26T04:05:53.407Z,4.35
2022-11-26T04:08:22.557Z,4.80
2022-11-26T04:10:51.662Z,6.00
2022-11-26T04:13:20.949Z,5.47
2022-11-26T04:15:50.517Z,6.75
2022-11-26T04:18:19.946Z,5.80
2022-11-26T04:20:53.260Z,5.40
2022-11-26T04:23:22.921Z,6.30
2022-11-26T04:25:57.279Z,6.47
2022-11-26T04:28:26.525Z,5.38
2022-11-26T04:30:55.695Z,5.15
2022-11-26T04:33:26.495Z,7.88
2022-11-26T04:35:58.097Z,7.47
2022-11-26T04:38:27.305Z,7.32
2022-11-26T04:40:56.469Z,5.07
2022-11-26T04:43:25.737Z,8.63
2022-11-26T04:46:00.842Z,5.90
2022-11-26T04:48:30.140Z,7.82
2022-11-26T04:51:01.274Z,5.28
2022-11-26T04:53:30.649Z,6.20
2022-11-26T04:55:59.892Z,7.90
2022-11-26T04:58:29.444Z,5.80
2022-11-26T05:00:58.652Z,6.28
2022-11-26T05:03:28.196Z,8.40
2022-11-26T05:06:04.526Z,6.97
2022-11-26T05:08:34.028Z,5.65
2022-11-26T05:11:03.208Z,5.05
2022-11-26T05:13:37.832Z,5.05
2022-11-26T05:16:07.832Z,3.65
2022-11-26T05:18:37.144Z,4.50
2022-11-26T05:21:09.804Z,4.93
2022-11-26T05:23:48.394Z,4.22
2022-11-26T05:26:22.720Z,5.07
2022-11-26T05:28:51.927Z,5.13
2022-11-26T05:31:21.090Z,5.35
2022-11-26T05:33:50.503Z,3.90
2022-11-26T05:36:26.816Z,3.70
2022-11-26T05:41:31.791Z,5.30
2022-11-26T05:44:01.086Z,5.00
2022-11-26T05:46:36.012Z,4.88
2022-11-26T05:49:05.206Z,4.22
2022-11-26T05:51:39.355Z,4.72
2022-11-26T05:54:08.645Z,5.10
2022-11-26T05:56:37.875Z,4.30
2022-11-26T05:59:12.655Z,4.22
2022-11-26T06:01:41.987Z,3.67
2022-11-26T06:04:11.145Z,4.20
2022-11-26T06:06:42.291Z,3.78
2022-11-26T06:09:16.562Z,2.90
2022-11-26T06:11:45.851Z,3.75
2022-11-26T06:14:16.016Z,2.80
2022-11-26T06:16:45.527Z,3.58
2022-11-26T06:19:17.684Z,4.75
2022-11-26T06:21:48.940Z,3.92
2022-11-26T06:24:18.231Z,3.92
2022-11-26T06:26:47.314Z,3.45
2022-11-26T06:29:26.433Z,4.18
2022-11-26T06:31:57.458Z,4.47
2022-11-26T06:34:26.910Z,4.70
2022-11-26T06:36:58.127Z,3.30
2022-11-26T06:39:27.363Z,2.88
2022-11-26T06:42:01.637Z,4.55
2022-11-26T06:44:30.944Z,5.50
2022-11-26T06:46:59.979Z,4.60
2022-11-26T06:49:29.134Z,5.80
2022-11-26T06:52:05.987Z,5.53
2022-11-26T06:54:35.596Z,5.63
2022-11-26T06:57:06.935Z,6.60
2022-11-26T06:59:38.037Z,5.32
2022-11-26T07:02:13.428Z,3.92
2022-11-26T07:04:47.919Z,6.53
2022-11-26T07:07:19.352Z,5.18
2022-11-26T07:09:48.909Z,5.53
2022-11-26T07:12:18.094Z,5.97
2022-11-26T07:14:47.342Z,3.65
2022-11-26T07:17:16.417Z,5.50
2022-11-26T07:19:45.581Z,5.30
2022-11-26T07:22:14.978Z,7.88
2022-11-26T07:24:56.235Z,6.13
2022-11-26T07:27:25.590Z,6.60
2022-11-26T07:29:54.638Z,6.95
2022-11-26T07:32:31.279Z,7.35
2022-11-26T07:35:05.180Z,9.07
2022-11-26T07:37:34.861Z,8.68
2022-11-26T07:40:07.166Z,7.78
2022-11-26T07:42:42.611Z,12.73
2022-11-26T07:45:12.795Z,7.07
2022-11-26T07:47:41.871Z,8.95
2022-11-26T07:50:11.623Z,7.53
2022-11-26T07:52:40.696Z,10.38
2022-11-26T07:55:12.887Z,6.53
2022-11-26T07:57:42.095Z,7.78
2022-11-26T08:00:12.563Z,7.07
2022-11-26T08:02:42.030Z,9.40
2022-11-26T08:05:11.460Z,7.32
2022-11-26T08:07:40.753Z,8.98
2022-11-26T08:10:13.413Z,8.95
2022-11-26T08:12:42.580Z,8.65
2022-11-26T08:15:12.801Z,7.90
2022-11-26T08:17:41.967Z,5.78
2022-11-26T08:20:12.253Z,7.00
2022-11-26T08:22:46.495Z,6.03
2022-11-26T08:25:17.607Z,4.47
2022-11-26T08:27:46.979Z,5.07
2022-11-26T08:30:16.543Z,7.30
2022-11-26T08:32:45.713Z,5.03
2022-11-26T08:35:14.881Z,7.03
2022-11-26T08:37:44.226Z,7.20
2022-11-26T08:40:14.575Z,9.30
2022-11-26T08:42:46.724Z,7.03
2022-11-26T08:45:16.100Z,7.53
2022-11-26T08:47:45.179Z,4.88
2022-11-26T08:53:02.159Z,6.80
2022-11-26T08:55:58.764Z,6.53
2022-11-26T08:58:23.153Z,5.65
2022-11-26T09:00:52.319Z,5.00
2022-11-26T09:03:26.779Z,7.57
2022-11-26T09:05:56.006Z,4.80
2022-11-26T09:08:32.413Z,9.35
2022-11-26T09:11:06.753Z,6.18
2022-11-26T09:13:37.910Z,8.60
2022-11-26T09:16:07.832Z,7.00
2022-11-26T09:18:36.950Z,6.00
2022-11-26T09:21:11.096Z,9.10
2022-11-26T09:23:40.291Z,8.20
2022-11-26T09:26:09.572Z,11.05
2022-11-26T09:28:41.217Z,11.45
2022-11-26T09:31:10.484Z,9.82
2022-11-26T09:33:39.606Z,5.43
2022-11-26T09:36:11.466Z,8.93
2022-11-26T09:38:41.410Z,7.90
2022-11-26T09:41:35.325Z,9.77
2022-11-26T09:44:18.439Z,9.07
2022-11-26T09:47:11.130Z,7.60
2022-11-26T09:49:57.143Z,7.60
2022-11-26T09:52:35.412Z,6.57
2022-11-26T09:55:18.871Z,7.05
2022-11-26T09:57:54.999Z,9.18
2022-11-26T10:00:29.539Z,5.15
2022-11-26T10:03:05.096Z,6.70
2022-11-26T10:05:46.219Z,7.88
2022-11-26T10:08:29.960Z,7.50
2022-11-26T10:11:12.771Z,8.13
2022-11-26T10:14:06.457Z,9.43
2022-11-26T10:16:45.448Z,6.82
2022-11-26T10:19:21.511Z,6.18
2022-11-26T10:21:59.609Z,11.18
2022-11-26T10:24:34.279Z,8.48
2022-11-26T10:27:11.350Z,6.82
2022-11-26T10:29:43.983Z,11.63
2022-11-26T10:32:26.285Z,9.07
2022-11-26T10:34:57.583Z,8.32
2022-11-26T10:37:29.402Z,6.35
2022-11-26T10:40:23.861Z,9.20
2022-11-26T10:43:15.754Z,9.05
2022-11-26T10:45:51.966Z,9.02
2022-11-26T10:48:26.625Z,6.03
2022-11-26T10:51:03.694Z,13.00
2022-11-26T10:53:54.037Z,7.93
2022-11-26T10:56:26.148Z,6.93
2022-11-26T10:59:01.125Z,9.65
2022-11-26T11:01:38.417Z,12.13
2022-11-26T11:04:28.382Z,13.77
2022-11-26T11:06:57.979Z,12.63
2022-11-26T11:09:31.575Z,11.63
2022-11-26T11:12:18.663Z,12.80
2022-11-26T11:14:49.027Z,7.22
2022-11-26T11:17:32.645Z,9.70
2022-11-26T11:20:34.236Z,8.93
2022-11-26T11:23:20.931Z,10.07
2022-11-26T11:26:00.639Z,8.57
2022-11-26T11:28:32.564Z,14.77
2022-11-26T11:33:33.389Z,8.38
2022-11-26T11:36:07.842Z,7.57
2022-11-26T11:38:49.255Z,12.13
2022-11-26T11:41:29.187Z,9.63
2022-11-26T11:44:08.038Z,10.43
2022-11-26T11:46:56.131Z,9.10
2022-11-26T11:49:37.539Z,11.27
2022-11-26T11:52:19.701Z,8.32
2022-11-26T11:55:03.093Z,11.50
2022-11-26T11:57:55.463Z,9.38
2022-11-26T12:00:38.619Z,9.98
2022-11-26T12:03:28.175Z,13.52
2022-11-26T12:06:14.974Z,12.52
2022-11-26T12:09:00.479Z,9.35
2022-11-26T12:11:40.218Z,9.82
2022-11-26T12:14:15.448Z,7.45
2022-11-26T12:16:54.071Z,11.88
2022-11-26T12:19:31.408Z,16.85
2022-11-26T12:22:08.751Z,10.77
2022-11-26T12:24:48.516Z,7.05
2022-11-26T12:27:29.782Z,8.77
2022-11-26T12:30:03.716Z,11.55
2022-11-26T12:32:45.451Z,16.38
2022-11-26T12:35:25.052Z,10.30
2022-11-26T12:38:00.403Z,8.75
2022-11-26T12:40:37.546Z,9.77
2022-11-26T12:43:13.591Z,11.75
2022-11-26T12:45:55.444Z,12.73
2022-11-26T12:55:24.948Z,7.93
2022-11-26T12:57:57.724Z,9.88
2022-11-26T13:00:36.055Z,12.75
2022-11-26T13:03:07.862Z,9.40
2022-11-26T13:05:51.135Z,12.57
2022-11-26T13:08:41.553Z,11.75
2022-11-26T13:11:31.736Z,13.23
2022-11-26T13:14:21.123Z,15.02
2022-11-26T13:16:56.936Z,9.50
2022-11-26T13:19:34.193Z,12.68
2022-11-26T13:22:19.463Z,7.50
2022-11-26T13:25:15.419Z,8.23
2022-11-26T13:28:01.805Z,9.35
2022-11-26T13:30:42.179Z,12.50
2022-11-26T13:33:55.678Z,10.68
2022-11-26T13:37:08.566Z,9.70
2022-11-26T13:40:16.684Z,14.95
2022-11-26T13:43:05.892Z,13.98
2022-11-26T13:46:07.440Z,14.85
2022-11-26T13:48:44.550Z,15.93
2022-11-26T13:51:21.188Z,18.10
2022-11-26T13:53:57.014Z,15.73
2022-11-26T13:56:31.763Z,16.13
2022-11-26T13:59:06.599Z,17.05
2022-11-26T14:01:39.847Z,14.07
2022-11-26T14:04:12.172Z,11.60
2022-11-26T14:07:17.357Z,19.52
2022-11-26T14:09:52.324Z,14.60
2022-11-26T14:12:22.673Z,15.30
2022-11-26T14:14:53.779Z,14.15
2022-11-26T14:17:35.442Z,10.73
2022-11-26T14:20:13.965Z,13.57
2022-11-26T14:22:43.188Z,15.00
2022-11-26T14:25:15.225Z,12.77
2022-11-26T14:27:54.683Z,13.13
2022-11-26T14:30:29.089Z,11.77
2022-11-26T14:33:07.958Z,14.07
2022-11-26T14:35:39.450Z,12.70
2022-11-26T14:38:23.557Z,15.43
2022-11-26T14:40:59.288Z,16.27
2022-11-26T14:43:29.268Z,13.55
2022-11-26T14:46:06.824Z,18.90
2022-11-26T14:48:42.712Z,21.85
2022-11-26T14:51:12.195Z,11.95
2022-11-26T14:53:48.754Z,14.23
2022-11-26T14:56:19.249Z,11.48
2022-11-26T14:58:52.407Z,10.30
2022-11-26T15:01:25.430Z,13.98
2022-11-26T15:03:59.791Z,15.57
2022-11-26T15:06:37.597Z,13.02
2022-11-26T15:09:16.273Z,15.27
2022-11-26T15:11:49.224Z,12.00
2022-11-26T15:14:26.507Z,16.90
2022-11-26T15:17:02.174Z,17.25
2022-11-26T15:19:36.660Z,12.27
2022-11-26T15:22:08.979Z,14.05
2022-11-26T15:24:39.856Z,12.82
2022-11-26T15:27:28.850Z,9.57
2022-11-26T15:30:03.515Z,11.15
2022-11-26T15:32:36.062Z,11.05
2022-11-26T15:37:57.271Z,15.35
2022-11-26T15:40:31.046Z,12.07
2022-11-26T15:43:02.742Z,13.50
2022-11-26T15:45:53.688Z,13.80
2022-11-26T15:48:50.344Z,17.00
2022-11-26T15:51:30.678Z,17.80
2022-11-26T15:54:02.417Z,20.50
2022-11-26T15:56:35.428Z,14.93
2022-11-26T15:59:17.201Z,14.75
2022-11-26T16:01:47.884Z,11.40
2022-11-26T16:04:40.070Z,15.02
2022-11-26T16:07:14.797Z,15.43
2022-11-26T16:09:44.643Z,10.23
2022-11-26T16:12:30.765Z,13.95
2022-11-26T16:15:20.388Z,19.83
2022-11-26T16:17:50.810Z,12.93
2022-11-26T16:20:24.578Z,17.23
2022-11-26T16:23:02.581Z,9.63
2022-11-26T16:25:34.017Z,14.13
2022-11-26T16:28:08.740Z,16.73
2022-11-26T16:30:38.180Z,9.68
2022-11-26T16:33:13.125Z,17.20
2022-11-26T16:35:46.175Z,19.95
2022-11-26T16:38:22.619Z,12.32
2022-11-26T16:40:52.330Z,23.65
2022-11-26T16:43:21.431Z,18.05
2022-11-26T16:45:53.263Z,15.93
2022-11-26T16:48:26.172Z,16.50
2022-11-26T16:51:02.370Z,16.42
2022-11-26T16:53:31.619Z,24.58
2022-11-26T16:56:00.767Z,18.38
2022-11-26T16:58:37.649Z,20.48
2022-11-26T17:01:07.418Z,20.27
2022-11-26T17:03:36.630Z,9.77
2022-11-26T17:06:17.471Z,14.88
2022-11-26T17:08:49.731Z,19.58
2022-11-26T17:11:20.019Z,19.10
2022-11-26T17:13:49.209Z,17.73
2022-11-26T17:16:21.408Z,20.50
2022-11-26T17:18:51.489Z,12.68
2022-11-26T17:21:27.659Z,13.07
2022-11-26T17:23:56.765Z,19.55
2022-11-26T17:26:26.653Z,15.02
2022-11-26T17:28:55.950Z,11.85
2022-11-26T17:31:26.405Z,21.15
2022-11-26T17:33:56.870Z,19.58
2022-11-26T17:36:35.263Z,22.20
2022-11-26T17:39:11.189Z,11.70
2022-11-26T17:41:41.346Z,15.60
2022-11-26T17:44:12.051Z,19.95
2022-11-26T17:47:09.195Z,16.90
2022-11-26T17:49:32.801Z,11.05
2022-11-26T17:52:08.936Z,19.77
2022-11-26T17:54:38.222Z,15.57
2022-11-26T17:57:07.578Z,13.73
2022-11-26T17:59:37.188Z,18.77
2022-11-26T18:02:06.594Z,13.52
2022-11-26T18:04:36.845Z,17.13
2022-11-26T18:07:20.690Z,21.45
2022-11-26T18:09:50.065Z,18.38
2022-11-26T18:12:24.969Z,19.30
2022-11-26T18:15:00.178Z,18.23
2022-11-26T18:17:29.429Z,11.88
2022-11-26T18:19:58.684Z,13.15
2022-11-26T18:22:30.060Z,21.98
2022-11-26T18:24:59.354Z,21.63
2022-11-26T18:27:30.799Z,19.70
2022-11-26T18:30:00.240Z,15.95
2022-11-26T18:32:29.399Z,18.83
2022-11-26T18:34:58.706Z,22.50
2022-11-26T18:37:30.076Z,17.13
2022-11-26T18:39:59.323Z,20.60
2022-11-26T18:42:37.252Z,22.65
2022-11-26T18:45:14.786Z,16.95
2022-11-26T18:47:44.120Z,16.98
2022-11-26T18:50:14.134Z,14.20
2022-11-26T18:52:45.532Z,14.45
2022-11-26T18:55:15.935Z,9.57
2022-11-26T18:57:45.035Z,14.73
2022-11-26T19:00:16.645Z,19.65
2022-11-26T19:02:52.694Z,15.05
2022-11-26T19:05:22.269Z,21.95
2022-11-26T19:07:53.467Z,21.73
2022-11-26T19:10:42.818Z,14.70
2022-11-26T19:13:12.033Z,11.88
2022-11-26T19:15:42.854Z,20.08
2022-11-26T19:18:13.647Z,20.20
2022-11-26T19:20:49.807Z,16.85
2022-11-26T19:23:24.318Z,22.98
2022-11-26T19:25:54.085Z,15.93
2022-11-26T19:28:26.710Z,18.30
2022-11-26T19:31:01.107Z,17.75
2022-11-26T19:33:30.547Z,18.10
2022-11-26T19:36:00.174Z,12.20
2022-11-26T19:38:31.731Z,18.95
2022-11-26T19:41:01.787Z,18.83
2022-11-26T19:43:32.822Z,9.70
2022-11-26T19:46:06.804Z,14.85
2022-11-26T19:48:38.375Z,13.73
2022-11-26T19:51:08.450Z,19.88
2022-11-26T19:53:40.101Z,14.35
2022-11-26T19:58:39.413Z,12.15
2022-11-26T20:01:10.556Z,15.68
2022-11-26T20:03:40.051Z,15.13
2022-11-26T20:06:15.526Z,11.15
2022-11-26T20:08:48.553Z,17.58
2022-11-26T20:11:19.416Z,11.38
2022-11-26T20:13:53.074Z,13.27
2022-11-26T20:16:24.566Z,6.70
2022-11-26T20:18:54.526Z,18.33
2022-11-26T20:21:25.902Z,11.05
2022-11-26T20:23:59.352Z,16.23
2022-11-26T20:26:31.403Z,16.20
2022-11-26T20:29:02.760Z,13.65
2022-11-26T20:31:32.638Z,10.27
2022-11-26T20:34:13.894Z,19.23
2022-11-26T20:36:43.339Z,22.40
2022-11-26T20:39:16.243Z,20.00
2022-11-26T20:41:51.421Z,10.38
2022-11-26T20:44:20.624Z,13.63
2022-11-26T20:46:49.764Z,15.75
2022-11-26T20:49:23.985Z,15.63
2022-11-26T20:51:53.341Z,13.18
2022-11-26T20:54:29.514Z,15.85
2022-11-26T20:56:58.713Z,9.80
2022-11-26T20:59:27.994Z,9.00
2022-11-26T21:01:57.579Z,14.57
2022-11-26T21:04:26.872Z,13.00
2022-11-26T21:06:56.179Z,9.60
2022-11-26T21:12:08.598Z,8.95
2022-11-26T21:14:37.841Z,14.98
2022-11-26T21:17:06.985Z,18.70
2022-11-26T21:19:36.617Z,10.93
2022-11-26T21:24:53.070Z,19.52
2022-11-26T21:27:22.490Z,19.98
2022-11-26T21:29:51.711Z,11.13
2022-11-26T21:32:21.228Z,11.50
2022-11-26T21:34:50.399Z,17.13
2022-11-26T21:37:19.691Z,14.05
2022-11-26T21:39:50.053Z,21.45
2022-11-26T21:42:21.273Z,17.42
2022-11-26T21:44:50.468Z,10.15
2022-11-26T21:47:19.625Z,19.75
2022-11-26T21:49:48.922Z,10.13
2022-11-26T21:52:18.518Z,14.52
2022-11-26T21:54:50.736Z,13.48
2022-11-26T21:57:23.038Z,8.90
2022-11-26T21:59:59.936Z,12.15
2022-11-26T22:02:29.164Z,8.75
2022-11-26T22:04:58.397Z,13.77
2022-11-26T22:07:27.736Z,20.27
2022-11-26T22:10:02.236Z,15.52
2022-11-26T22:12:34.805Z,9.23
2022-11-26T22:15:04.264Z,12.25
2022-11-26T22:17:33.464Z,14.43
2022-11-26T22:20:03.182Z,10.00
2022-11-26T22:22:32.998Z,12.73
2022-11-26T22:25:02.408Z,6.13
2022-11-26T22:27:34.230Z,11.35
2022-11-26T22:30:03.659Z,20.90
2022-11-26T22:32:33.546Z,12.77
2022-11-26T22:35:07.701Z,12.02
2022-11-26T22:37:37.369Z,17.20
2022-11-26T22:40:14.211Z,14.40
2022-11-26T22:42:45.578Z,15.93
2022-11-26T22:45:15.041Z,9.82
2022-11-26T22:47:46.488Z,10.02
2022-11-26T22:50:23.516Z,15.65
2022-11-26T22:53:04.015Z,12.13
2022-11-26T22:55:33.308Z,17.13
2022-11-26T22:58:04.412Z,14.02
2022-11-26T23:00:47.778Z,16.35
2022-11-26T23:03:22.947Z,9.00
2022-11-26T23:05:52.880Z,16.40
2022-11-26T23:08:22.576Z,11.10
2022-11-26T23:10:51.812Z,11.98
2022-11-26T23:13:28.033Z,9.30
2022-11-26T23:15:57.490Z,15.70
2022-11-26T23:18:27.041Z,15.02
2022-11-26T23:23:41.321Z,10.43
2022-11-26T23:26:26.873Z,11.90
2022-11-26T23:29:00.061Z,12.82
2022-11-26T23:31:32.051Z,12.80
2022-11-26T23:34:01.832Z,15.68
2022-11-26T23:36:31.939Z,12.32
2022-11-26T23:39:07.789Z,9.27
2022-11-26T23:41:38.255Z,7.63
2022-11-26T23:44:10.155Z,17.05
2022-11-26T23:49:08.342Z,10.52
2022-11-26T23:51:37.928Z,18.40
2022-11-26T23:54:12.205Z,12.80
2022-11-26T23:56:44.077Z,11.85
